^^
Saratoga-Weather Station Historical Data
Daily Summary for January 19, 2021 Units:  Both    English   Metric
Daily Weekly Monthly Yearly Custom
  High: Low: Average:
Temperature: 38.7 °F /  3.7 °C 36.9 °F /  2.7 °C 37.6 °F /  3.1 °C
Dew Point: 36.9 °F /  2.7 °C 32.9 °F /  0.5 °C 34.3 °F /  1.3 °C
Humidity: 94% 83% 88%
Wind Speed: 14mph /  22.5km/h - 2.7mph /  4.3km/h
Wind Gust: 15mph /  24.1km/h - -
Wind- - SSW
Pressure: 30.2 in /  1022.7 hPa 29.9 in /  1012.9 hPa -
Precipitation: 0.14 in /  3.6 mm    
Historical Graphs
 
 
Tabular Data for January 19, 2021
Time Temperature Dew Point Pressure Wind Wind Speed Wind Gust Humidity Rainfall Rate (Hourly) solar
00:04 37.4 °F /  3 °C 34.2 °F /  1.2 °C 30.2in /  1022.7hPa Calm   2mph /  3.2km/h 88% 0in /  0.0mm 0 W/m2
00:09 37.4 °F /  3 °C 34.2 °F /  1.2 °C 30.2in /  1022.7hPa Calm     88% 0in /  0.0mm 0 W/m2
00:14 37.4 °F /  3 °C 34.2 °F /  1.2 °C 30.2in /  1022.7hPa Calm   1mph /  1.6km/h 88% 0in /  0.0mm 0 W/m2
00:19 37.2 °F /  2.9 °C 34 °F /  1.1 °C 30.2in /  1022.4hPa Calm   1mph /  1.6km/h 88% 0in /  0.0mm 0 W/m2
00:24 37.2 °F /  2.9 °C 34 °F /  1.1 °C 30.2in /  1022.4hPa Calm     88% 0in /  0.0mm 0 W/m2
00:29 37 °F /  2.8 °C 33.8 °F /  1 °C 30.2in /  1022.4hPa SSE 2mph /  3.2km/h 6mph /  9.7km/h 88% 0in /  0.0mm 0 W/m2
00:34 37 °F /  2.8 °C 33.8 °F /  1 °C 30.2in /  1022.4hPa Calm   2mph /  3.2km/h 88% 0in /  0.0mm 0 W/m2
00:39 37 °F /  2.8 °C 33.8 °F /  1 °C 30.2in /  1022.4hPa ENE 2mph /  3.2km/h 6mph /  9.7km/h 88% 0in /  0.0mm 0 W/m2
00:44 37 °F /  2.8 °C 33.8 °F /  1 °C 30.2in /  1022.0hPa Calm   1mph /  1.6km/h 88% 0in /  0.0mm 0 W/m2
00:49 37 °F /  2.8 °C 33.8 °F /  1 °C 30.2in /  1022.0hPa East 2mph /  3.2km/h 3mph /  4.8km/h 88% 0in /  0.0mm 0 W/m2
00:54 37 °F /  2.8 °C 33.8 °F /  1 °C 30.2in /  1022.0hPa Calm   3mph /  4.8km/h 88% 0in /  0.0mm 0 W/m2
00:59 37 °F /  2.8 °C 33.8 °F /  1 °C 30.2in /  1022.0hPa ENE 2mph /  3.2km/h 4mph /  6.4km/h 88% 0in /  0.0mm 0 W/m2
01:04 37.2 °F /  2.9 °C 33.8 °F /  1 °C 30.2in /  1022.0hPa NNW 0.9mph /  1.4km/h 4mph /  6.4km/h 87% 0in /  0.0mm 0 W/m2
01:09 37.4 °F /  3 °C 33.8 °F /  1 °C 30.2in /  1021.7hPa North 0.9mph /  1.4km/h 5mph /  8km/h 87% 0in /  0.0mm 0 W/m2
01:14 37.4 °F /  3 °C 33.8 °F /  1 °C 30.2in /  1021.7hPa NW 4mph /  6.4km/h 5mph /  8km/h 87% 0in /  0.0mm 0 W/m2
01:19 37.6 °F /  3.1 °C 34 °F /  1.1 °C 30.2in /  1021.7hPa North 2mph /  3.2km/h 2mph /  3.2km/h 87% 0in /  0.0mm 0 W/m2
01:24 37.6 °F /  3.1 °C 34 °F /  1.1 °C 30.2in /  1021.3hPa ENE 2mph /  3.2km/h 3mph /  4.8km/h 87% 0in /  0.0mm 0 W/m2
01:29 37.6 °F /  3.1 °C 34 °F /  1.1 °C 30.2in /  1021.7hPa ENE 2.9mph /  4.7km/h 3mph /  4.8km/h 87% 0in /  0.0mm 0 W/m2
01:34 37.6 °F /  3.1 °C 34 °F /  1.1 °C 30.2in /  1021.3hPa ESE 2.9mph /  4.7km/h 6mph /  9.7km/h 87% 0in /  0.0mm 0 W/m2
01:39 37.6 °F /  3.1 °C 33.8 °F /  1 °C 30.2in /  1021.3hPa Calm   1mph /  1.6km/h 86% 0in /  0.0mm 0 W/m2
01:44 37.6 °F /  3.1 °C 33.8 °F /  1 °C 30.2in /  1021.3hPa ENE 0.9mph /  1.4km/h 4mph /  6.4km/h 86% 0in /  0.0mm 0 W/m2
01:49 37.8 °F /  3.2 °C 34 °F /  1.1 °C 30.2in /  1021.3hPa WNW 0.9mph /  1.4km/h 3mph /  4.8km/h 86% 0in /  0.0mm 0 W/m2
01:54 37.8 °F /  3.2 °C 34 °F /  1.1 °C 30.2in /  1021.3hPa East 0.9mph /  1.4km/h 6mph /  9.7km/h 86% 0in /  0.0mm 0 W/m2
01:59 37.8 °F /  3.2 °C 34 °F /  1.1 °C 30.2in /  1021.3hPa East 2.9mph /  4.7km/h 7mph /  11.3km/h 86% 0in /  0.0mm 0 W/m2
02:04 37.8 °F /  3.2 °C 34 °F /  1.1 °C 30.2in /  1021.3hPa ENE 2mph /  3.2km/h 3mph /  4.8km/h 86% 0in /  0.0mm 0 W/m2
02:09 37.8 °F /  3.2 °C 34 °F /  1.1 °C 30.2in /  1021.0hPa ENE 0.9mph /  1.4km/h 4mph /  6.4km/h 86% 0in /  0.0mm 0 W/m2
02:14 37.6 °F /  3.1 °C 33.8 °F /  1 °C 30.2in /  1021.0hPa NE 2mph /  3.2km/h 3mph /  4.8km/h 86% 0in /  0.0mm 0 W/m2
02:19 37.8 °F /  3.2 °C 34 °F /  1.1 °C 30.2in /  1021.0hPa NW 2mph /  3.2km/h 5mph /  8km/h 86% 0in /  0.0mm 0 W/m2
02:24 37.8 °F /  3.2 °C 34 °F /  1.1 °C 30.1in /  1020.7hPa Calm   4mph /  6.4km/h 86% 0in /  0.0mm 0 W/m2
02:29 37.8 °F /  3.2 °C 34 °F /  1.1 °C 30.1in /  1020.7hPa North 2.9mph /  4.7km/h 5mph /  8km/h 86% 0in /  0.0mm 0 W/m2
02:34 37.8 °F /  3.2 °C 34 °F /  1.1 °C 30.1in /  1020.7hPa ESE 0.9mph /  1.4km/h 3mph /  4.8km/h 86% 0in /  0.0mm 0 W/m2
02:39 37.8 °F /  3.2 °C 33.6 °F /  0.9 °C 30.1in /  1020.7hPa WNW 2mph /  3.2km/h 4mph /  6.4km/h 85% 0in /  0.0mm 0 W/m2
02:44 37.8 °F /  3.2 °C 33.6 °F /  0.9 °C 30.1in /  1020.7hPa Calm   3mph /  4.8km/h 85% 0in /  0.0mm 0 W/m2
02:49 37.8 °F /  3.2 °C 34 °F /  1.1 °C 30.1in /  1020.7hPa NW 2mph /  3.2km/h 5mph /  8km/h 86% 0in /  0.0mm 0 W/m2
02:54 37.8 °F /  3.2 °C 33.6 °F /  0.9 °C 30.1in /  1020.7hPa ESE 6mph /  9.7km/h 8mph /  12.9km/h 85% 0in /  0.0mm 0 W/m2
02:59 37.8 °F /  3.2 °C 33.6 °F /  0.9 °C 30.1in /  1020.7hPa WNW 2.9mph /  4.7km/h 3mph /  4.8km/h 85% 0in /  0.0mm 0 W/m2
03:04 37.8 °F /  3.2 °C 33.6 °F /  0.9 °C 30.1in /  1020.7hPa NNW 2mph /  3.2km/h 8mph /  12.9km/h 85% 0in /  0.0mm 0 W/m2
03:09 37.8 °F /  3.2 °C 33.6 °F /  0.9 °C 30.1in /  1020.7hPa East 2mph /  3.2km/h 2mph /  3.2km/h 85% 0in /  0.0mm 0 W/m2
03:14 37.8 °F /  3.2 °C 33.6 °F /  0.9 °C 30.1in /  1020.7hPa ENE 2mph /  3.2km/h 2mph /  3.2km/h 85% 0in /  0.0mm 0 W/m2
03:19 37.8 °F /  3.2 °C 33.6 °F /  0.9 °C 30.1in /  1020.7hPa WNW 0.9mph /  1.4km/h 4mph /  6.4km/h 85% 0in /  0.0mm 0 W/m2
03:24 37.8 °F /  3.2 °C 33.6 °F /  0.9 °C 30.1in /  1020.3hPa ENE 0.9mph /  1.4km/h 4mph /  6.4km/h 85% 0in /  0.0mm 0 W/m2
03:29 37.6 °F /  3.1 °C 33.4 °F /  0.8 °C 30.1in /  1020.3hPa NNW 2mph /  3.2km/h 5mph /  8km/h 85% 0in /  0.0mm 0 W/m2
03:34 37.6 °F /  3.1 °C 33.4 °F /  0.8 °C 30.1in /  1020.0hPa ENE 0.9mph /  1.4km/h 4mph /  6.4km/h 85% 0in /  0.0mm 0 W/m2
03:39 37.6 °F /  3.1 °C 33.4 °F /  0.8 °C 30.1in /  1020.0hPa NNE 2mph /  3.2km/h 5mph /  8km/h 85% 0in /  0.0mm 0 W/m2
03:44 37.6 °F /  3.1 °C 33.8 °F /  1 °C 30.1in /  1020.0hPa North 0.9mph /  1.4km/h 4mph /  6.4km/h 86% 0in /  0.0mm 0 W/m2
03:49 37.6 °F /  3.1 °C 33.4 °F /  0.8 °C 30.1in /  1019.6hPa West 0.9mph /  1.4km/h 4mph /  6.4km/h 85% 0in /  0.0mm 0 W/m2
03:54 37.6 °F /  3.1 °C 33.8 °F /  1 °C 30.1in /  1019.6hPa East 0.9mph /  1.4km/h 3mph /  4.8km/h 86% 0in /  0.0mm 0 W/m2
03:59 37.6 °F /  3.1 °C 33.4 °F /  0.8 °C 30.1in /  1019.6hPa NNE 2.9mph /  4.7km/h 4mph /  6.4km/h 85% 0in /  0.0mm 0 W/m2
04:04 37.6 °F /  3.1 °C 33.4 °F /  0.8 °C 30.1in /  1019.6hPa North 2.9mph /  4.7km/h 5mph /  8km/h 85% 0in /  0.0mm 0 W/m2
04:09 37.4 °F /  3 °C 33.6 °F /  0.9 °C 30.1in /  1019.6hPa NE 2.9mph /  4.7km/h 4mph /  6.4km/h 86% 0in /  0.0mm 0 W/m2
04:14 37.4 °F /  3 °C 33.6 °F /  0.9 °C 30.1in /  1019.3hPa East 0.9mph /  1.4km/h 2mph /  3.2km/h 86% 0in /  0.0mm 0 W/m2
04:19 37.4 °F /  3 °C 33.6 °F /  0.9 °C 30.1in /  1019.3hPa NE 0.9mph /  1.4km/h 3mph /  4.8km/h 86% 0in /  0.0mm 0 W/m2
04:24 37.4 °F /  3 °C 33.6 °F /  0.9 °C 30.1in /  1019.3hPa NNW 2mph /  3.2km/h 2mph /  3.2km/h 86% 0in /  0.0mm 0 W/m2
04:29 37.4 °F /  3 °C 33.3 °F /  0.7 °C 30.1in /  1019.0hPa NNE 4mph /  6.4km/h 4mph /  6.4km/h 85% 0in /  0.0mm 0 W/m2
04:34 37.6 °F /  3.1 °C 33.4 °F /  0.8 °C 30.1in /  1019.0hPa NE 0.9mph /  1.4km/h 4mph /  6.4km/h 85% 0in /  0.0mm 0 W/m2
04:39 37.6 °F /  3.1 °C 33.4 °F /  0.8 °C 30.1in /  1019.0hPa North 2.9mph /  4.7km/h 4mph /  6.4km/h 85% 0in /  0.0mm 0 W/m2
04:44 37.6 °F /  3.1 °C 33.4 °F /  0.8 °C 30.1in /  1019.0hPa NNE 2mph /  3.2km/h 3mph /  4.8km/h 85% 0in /  0.0mm 0 W/m2
04:49 37.6 °F /  3.1 °C 33.4 °F /  0.8 °C 30.1in /  1019.0hPa NNW 2mph /  3.2km/h 4mph /  6.4km/h 85% 0in /  0.0mm 0 W/m2
04:54 37.6 °F /  3.1 °C 33.4 °F /  0.8 °C 30.1in /  1019.0hPa SE 0.9mph /  1.4km/h 2mph /  3.2km/h 85% 0in /  0.0mm 0 W/m2
04:59 37.6 °F /  3.1 °C 33.4 °F /  0.8 °C 30.1in /  1019.0hPa NNW 0.9mph /  1.4km/h 3mph /  4.8km/h 85% 0in /  0.0mm 0 W/m2
05:04 37.4 °F /  3 °C 33.3 °F /  0.7 °C 30.1in /  1019.0hPa Calm   2mph /  3.2km/h 85% 0in /  0.0mm 0 W/m2
05:09 37.2 °F /  2.9 °C 33.1 °F /  0.6 °C 30.1in /  1018.6hPa Calm   2mph /  3.2km/h 85% 0in /  0.0mm 0 W/m2
05:14 37.2 °F /  2.9 °C 33.1 °F /  0.6 °C 30.1in /  1018.6hPa NE 2mph /  3.2km/h 4mph /  6.4km/h 85% 0in /  0.0mm 0 W/m2
05:20 37.2 °F /  2.9 °C 33.1 °F /  0.6 °C 30.1in /  1018.6hPa Calm   3mph /  4.8km/h 85% 0in /  0.0mm 0 W/m2
05:25 37 °F /  2.8 °C 32.9 °F /  0.5 °C 30.1in /  1018.3hPa NE 2mph /  3.2km/h 3mph /  4.8km/h 85% 0in /  0.0mm 0 W/m2
05:30 37.2 °F /  2.9 °C 33.1 °F /  0.6 °C 30.1in /  1018.3hPa North 2mph /  3.2km/h 4mph /  6.4km/h 85% 0in /  0.0mm 0 W/m2
05:35 37.2 °F /  2.9 °C 33.1 °F /  0.6 °C 30.1in /  1018.3hPa WNW 2mph /  3.2km/h 8mph /  12.9km/h 85% 0in /  0.0mm 0 W/m2
05:40 37.2 °F /  2.9 °C 33.1 °F /  0.6 °C 30.1in /  1018.3hPa North 0.9mph /  1.4km/h 4mph /  6.4km/h 85% 0in /  0.0mm 0 W/m2
05:45 37.2 °F /  2.9 °C 33.1 °F /  0.6 °C 30.1in /  1018.3hPa NE 2.9mph /  4.7km/h 6mph /  9.7km/h 85% 0in /  0.0mm 0 W/m2
05:50 37.4 °F /  3 °C 33.3 °F /  0.7 °C 30.1in /  1018.3hPa North 4mph /  6.4km/h 5mph /  8km/h 85% 0in /  0.0mm 0 W/m2
05:55 37.6 °F /  3.1 °C 33.4 °F /  0.8 °C 30.1in /  1018.3hPa Calm   3mph /  4.8km/h 85% 0in /  0.0mm 0 W/m2
06:00 37.6 °F /  3.1 °C 33.4 °F /  0.8 °C 30.1in /  1018.0hPa NNW 2mph /  3.2km/h 3mph /  4.8km/h 85% 0in /  0.0mm 0 W/m2
06:05 37.6 °F /  3.1 °C 33.4 °F /  0.8 °C 30.1in /  1018.0hPa ENE 2.9mph /  4.7km/h 4mph /  6.4km/h 85% 0in /  0.0mm 0 W/m2
06:10 37.6 °F /  3.1 °C 33.4 °F /  0.8 °C 30.1in /  1018.0hPa NE 0.9mph /  1.4km/h 4mph /  6.4km/h 85% 0in /  0.0mm 0 W/m2
06:15 37.6 °F /  3.1 °C 33.4 °F /  0.8 °C 30.1in /  1017.6hPa ENE 2mph /  3.2km/h 2mph /  3.2km/h 85% 0in /  0.0mm 0 W/m2
06:20 37.4 °F /  3 °C 33.3 °F /  0.7 °C 30.1in /  1017.6hPa ENE 2mph /  3.2km/h 9mph /  14.5km/h 85% 0in /  0.0mm 0 W/m2
06:25 37.4 °F /  3 °C 33.3 °F /  0.7 °C 30.1in /  1017.6hPa ENE 0.9mph /  1.4km/h 3mph /  4.8km/h 85% 0in /  0.0mm 0 W/m2
06:30 37.4 °F /  3 °C 33.3 °F /  0.7 °C 30.1in /  1017.6hPa North 2mph /  3.2km/h 7mph /  11.3km/h 85% 0in /  0.0mm 0 W/m2
06:35 37.2 °F /  2.9 °C 33.1 °F /  0.6 °C 30.1in /  1017.6hPa SE 2.9mph /  4.7km/h 6mph /  9.7km/h 85% 0in /  0.0mm 0 W/m2
06:40 37.2 °F /  2.9 °C 33.1 °F /  0.6 °C 30.1in /  1017.6hPa North 0.9mph /  1.4km/h 3mph /  4.8km/h 85% 0in /  0.0mm 0 W/m2
06:45 37.2 °F /  2.9 °C 33.1 °F /  0.6 °C 30.1in /  1017.6hPa NNE 0.9mph /  1.4km/h 9mph /  14.5km/h 85% 0in /  0.0mm 0 W/m2
06:50 37.2 °F /  2.9 °C 33.1 °F /  0.6 °C 30in /  1017.3hPa NW 2mph /  3.2km/h 8mph /  12.9km/h 85% 0in /  0.0mm 0 W/m2
06:55 37.2 °F /  2.9 °C 33.1 °F /  0.6 °C 30in /  1017.3hPa NE 2.9mph /  4.7km/h 3mph /  4.8km/h 85% 0in /  0.0mm 0 W/m2
07:00 37.2 °F /  2.9 °C 33.1 °F /  0.6 °C 30in /  1017.3hPa WNW 8.1mph /  13km/h 8mph /  12.9km/h 85% 0in /  0.0mm 0 W/m2
07:05 37 °F /  2.8 °C 32.9 °F /  0.5 °C 30in /  1017.3hPa NE 0.9mph /  1.4km/h 11mph /  17.7km/h 85% 0in /  0.0mm 0 W/m2
07:10 37 °F /  2.8 °C 33.3 °F /  0.7 °C 30in /  1017.3hPa North 0.9mph /  1.4km/h 5mph /  8km/h 86% 0in /  0.0mm 0 W/m2
07:15 37 °F /  2.8 °C 33.3 °F /  0.7 °C 30in /  1016.9hPa NE 0.9mph /  1.4km/h 11mph /  17.7km/h 86% 0in /  0.0mm 0 W/m2
07:20 37 °F /  2.8 °C 33.3 °F /  0.7 °C 30in /  1016.9hPa WNW 2mph /  3.2km/h 4mph /  6.4km/h 86% 0in /  0.0mm 0 W/m2
07:25 37 °F /  2.8 °C 33.3 °F /  0.7 °C 30in /  1016.9hPa ENE 2mph /  3.2km/h 2mph /  3.2km/h 86% 0in /  0.0mm 0 W/m2
07:30 36.9 °F /  2.7 °C 33.1 °F /  0.6 °C 30in /  1016.9hPa WNW 2.9mph /  4.7km/h 5mph /  8km/h 86% 0in /  0.0mm 0 W/m2
07:35 36.9 °F /  2.7 °C 33.1 °F /  0.6 °C 30in /  1016.9hPa NW 2.9mph /  4.7km/h 3mph /  4.8km/h 86% 0in /  0.0mm 0 W/m2
07:40 36.9 °F /  2.7 °C 33.1 °F /  0.6 °C 30in /  1017.3hPa North 2mph /  3.2km/h 3mph /  4.8km/h 86% 0in /  0.0mm 0 W/m2
07:45 37 °F /  2.8 °C 33.3 °F /  0.7 °C 30in /  1016.9hPa WSW 2mph /  3.2km/h 5mph /  8km/h 86% 0in /  0.0mm 0 W/m2
07:50 37 °F /  2.8 °C 33.3 °F /  0.7 °C 30in /  1016.6hPa NNE 0.9mph /  1.4km/h 4mph /  6.4km/h 86% 0in /  0.0mm 0 W/m2
07:55 37 °F /  2.8 °C 33.3 °F /  0.7 °C 30in /  1016.6hPa ENE 2.9mph /  4.7km/h 4mph /  6.4km/h 86% 0in /  0.0mm 0 W/m2
08:00 37 °F /  2.8 °C 33.3 °F /  0.7 °C 30in /  1016.3hPa NNE 4.9mph /  7.9km/h 7mph /  11.3km/h 86% 0in /  0.0mm 0 W/m2
08:05 37.2 °F /  2.9 °C 33.4 °F /  0.8 °C 30in /  1016.3hPa NNW 2.9mph /  4.7km/h 5mph /  8km/h 86% 0in /  0.0mm 0 W/m2
08:10 37.2 °F /  2.9 °C 33.4 °F /  0.8 °C 30in /  1016.3hPa Calm   7mph /  11.3km/h 86% 0in /  0.0mm 0 W/m2
08:15 37.2 °F /  2.9 °C 33.1 °F /  0.6 °C 30in /  1016.3hPa NW 0.9mph /  1.4km/h 4mph /  6.4km/h 85% 0in /  0.0mm 0 W/m2
08:20 37.4 °F /  3 °C 33.3 °F /  0.7 °C 30in /  1016.3hPa NW 2mph /  3.2km/h 8mph /  12.9km/h 85% 0in /  0.0mm 0 W/m2
08:25 37.6 °F /  3.1 °C 33.4 °F /  0.8 °C 30in /  1016.3hPa WNW 0.9mph /  1.4km/h 3mph /  4.8km/h 85% 0in /  0.0mm 0 W/m2
08:30 37.6 °F /  3.1 °C 33.3 °F /  0.7 °C 30in /  1016.3hPa WNW 2.9mph /  4.7km/h 8mph /  12.9km/h 84% 0in /  0.0mm 0 W/m2
08:35 37.8 °F /  3.2 °C 33.4 °F /  0.8 °C 30in /  1015.9hPa WNW 0.9mph /  1.4km/h 7mph /  11.3km/h 84% 0in /  0.0mm 7 W/m2
08:40 37.8 °F /  3.2 °C 33.4 °F /  0.8 °C 30in /  1015.9hPa NNW 0.9mph /  1.4km/h 9mph /  14.5km/h 84% 0in /  0.0mm 9 W/m2
08:45 37.9 °F /  3.3 °C 33.6 °F /  0.9 °C 30in /  1015.9hPa WNW 4mph /  6.4km/h 4mph /  6.4km/h 84% 0in /  0.0mm 12 W/m2
08:50 37.9 °F /  3.3 °C 33.6 °F /  0.9 °C 30in /  1015.9hPa NW 2mph /  3.2km/h 9mph /  14.5km/h 84% 0in /  0.0mm 16 W/m2
08:55 37.9 °F /  3.3 °C 33.6 °F /  0.9 °C 30in /  1015.9hPa North 4mph /  6.4km/h 6mph /  9.7km/h 84% 0in /  0.0mm 21 W/m2
09:01 38.1 °F /  3.4 °C 33.4 °F /  0.8 °C 30in /  1015.9hPa WNW 6.9mph /  11.1km/h 7mph /  11.3km/h 83% 0in /  0.0mm 23 W/m2
09:06 38.1 °F /  3.4 °C 33.4 °F /  0.8 °C 30in /  1015.6hPa SW 2.9mph /  4.7km/h 7mph /  11.3km/h 83% 0in /  0.0mm 25 W/m2
09:11 38.3 °F /  3.5 °C 33.6 °F /  0.9 °C 30in /  1015.6hPa Calm   9mph /  14.5km/h 83% 0in /  0.0mm 26 W/m2
09:16 38.3 °F /  3.5 °C 33.6 °F /  0.9 °C 30in /  1015.6hPa NW 4mph /  6.4km/h 6mph /  9.7km/h 83% 0in /  0.0mm 30 W/m2
09:21 38.5 °F /  3.6 °C 33.8 °F /  1 °C 30in /  1015.6hPa South 2mph /  3.2km/h 6mph /  9.7km/h 83% 0in /  0.0mm 33 W/m2
09:26 38.5 °F /  3.6 °C 33.8 °F /  1 °C 30in /  1015.6hPa WNW 8.9mph /  14.3km/h 12mph /  19.3km/h 83% 0in /  0.0mm 35 W/m2
09:31 38.5 °F /  3.6 °C 33.8 °F /  1 °C 30in /  1015.6hPa NE 0.9mph /  1.4km/h 4mph /  6.4km/h 83% 0in /  0.0mm 33 W/m2
09:36 38.5 °F /  3.6 °C 33.8 °F /  1 °C 30in /  1015.6hPa NW 2.9mph /  4.7km/h 12mph /  19.3km/h 83% 0in /  0.0mm 28 W/m2
09:41 38.5 °F /  3.6 °C 34.2 °F /  1.2 °C 30in /  1015.6hPa West 6mph /  9.7km/h 15mph /  24.1km/h 84% 0in /  0.0mm 25 W/m2
09:46 38.3 °F /  3.5 °C 34 °F /  1.1 °C 30in /  1015.6hPa WNW 6.9mph /  11.1km/h 7mph /  11.3km/h 84% 0.01in /  0.2mm 26 W/m2
09:51 38.1 °F /  3.4 °C 34 °F /  1.1 °C 30in /  1015.6hPa ENE 0.9mph /  1.4km/h 15mph /  24.1km/h 85% 0.01in /  0.2mm 33 W/m2
09:56 38.1 °F /  3.4 °C 34 °F /  1.1 °C 30in /  1015.6hPa WSW 2mph /  3.2km/h 5mph /  8km/h 85% 0.02in /  0.5mm 32 W/m2
10:01 37.9 °F /  3.3 °C 34.2 °F /  1.2 °C 30in /  1015.6hPa West 2.9mph /  4.7km/h 6mph /  9.7km/h 86% 0.02in /  0.5mm 30 W/m2
10:06 37.9 °F /  3.3 °C 34.2 °F /  1.2 °C 30in /  1015.6hPa SW 2mph /  3.2km/h 9mph /  14.5km/h 86% 0.02in /  0.5mm 28 W/m2
10:11 37.8 °F /  3.2 °C 34.2 °F /  1.2 °C 30in /  1015.2hPa ENE 4mph /  6.4km/h 4mph /  6.4km/h 87% 0.02in /  0.5mm 33 W/m2
10:16 37.8 °F /  3.2 °C 34.5 °F /  1.4 °C 30in /  1015.2hPa WSW 2mph /  3.2km/h 9mph /  14.5km/h 88% 0.02in /  0.5mm 37 W/m2
10:21 37.8 °F /  3.2 °C 34.5 °F /  1.4 °C 30in /  1015.6hPa NW 2.9mph /  4.7km/h 6mph /  9.7km/h 88% 0.03in /  0.8mm 33 W/m2
10:26 37.6 °F /  3.1 °C 34.7 °F /  1.5 °C 30in /  1015.6hPa NNE 2.9mph /  4.7km/h 3mph /  4.8km/h 89% 0.03in /  0.8mm 37 W/m2
10:31 37.6 °F /  3.1 °C 34.7 °F /  1.5 °C 30in /  1015.6hPa WSW 4mph /  6.4km/h 8mph /  12.9km/h 89% 0.04in /  1.0mm 46 W/m2
10:36 37.6 °F /  3.1 °C 34.7 °F /  1.5 °C 30in /  1015.6hPa Calm   10mph /  16.1km/h 89% 0.05in /  1.3mm 46 W/m2
10:41 37.6 °F /  3.1 °C 34.9 °F /  1.6 °C 30in /  1015.6hPa ENE 4mph /  6.4km/h 5mph /  8km/h 90% 0.05in /  1.3mm 53 W/m2
10:46 37.6 °F /  3.1 °C 34.9 °F /  1.6 °C 30in /  1015.6hPa West 6mph /  9.7km/h 6mph /  9.7km/h 90% 0.04in /  1.0mm 37 W/m2
10:51 37.6 °F /  3.1 °C 34.9 °F /  1.6 °C 30in /  1015.2hPa WNW 4mph /  6.4km/h 5mph /  8km/h 90% 0.05in /  1.3mm 40 W/m2
10:56 37.6 °F /  3.1 °C 34.9 °F /  1.6 °C 30in /  1015.2hPa North 4mph /  6.4km/h 8mph /  12.9km/h 90% 0.05in /  1.3mm 42 W/m2
11:01 37.6 °F /  3.1 °C 35.2 °F /  1.8 °C 30in /  1015.2hPa WNW 2.9mph /  4.7km/h 7mph /  11.3km/h 91% 0.05in /  1.3mm 40 W/m2
11:06 37.6 °F /  3.1 °C 35.2 °F /  1.8 °C 30in /  1015.2hPa NNW 2.9mph /  4.7km/h 5mph /  8km/h 91% 0.05in /  1.3mm 46 W/m2
11:11 37.6 °F /  3.1 °C 35.2 °F /  1.8 °C 30in /  1015.2hPa NNW 4mph /  6.4km/h 7mph /  11.3km/h 91% 0.05in /  1.3mm 46 W/m2
11:16 37.4 °F /  3 °C 35.2 °F /  1.8 °C 30in /  1015.2hPa WNW 2.9mph /  4.7km/h 6mph /  9.7km/h 92% 0.06in /  1.5mm 35 W/m2
11:21 37.4 °F /  3 °C 35.2 °F /  1.8 °C 30in /  1015.2hPa SSE 4mph /  6.4km/h 8mph /  12.9km/h 92% 0.05in /  1.3mm 33 W/m2
11:26 37.4 °F /  3 °C 35.2 °F /  1.8 °C 30in /  1015.2hPa NNE 2mph /  3.2km/h 6mph /  9.7km/h 92% 0.06in /  1.5mm 37 W/m2
11:31 37.4 °F /  3 °C 35.2 °F /  1.8 °C 30in /  1015.2hPa WSW 4mph /  6.4km/h 9mph /  14.5km/h 92% 0.06in /  1.5mm 47 W/m2
11:36 37.6 °F /  3.1 °C 35.4 °F /  1.9 °C 30in /  1015.2hPa NNE 4.9mph /  7.9km/h 8mph /  12.9km/h 92% 0.05in /  1.3mm 54 W/m2
11:41 37.6 °F /  3.1 °C 35.4 °F /  1.9 °C 30in /  1014.9hPa North 4mph /  6.4km/h 7mph /  11.3km/h 92% 0.06in /  1.5mm 54 W/m2
11:46 37.6 °F /  3.1 °C 35.4 °F /  1.9 °C 30in /  1014.9hPa NE 2mph /  3.2km/h 5mph /  8km/h 92% 0.05in /  1.3mm 56 W/m2
11:51 37.6 °F /  3.1 °C 35.4 °F /  1.9 °C 30in /  1014.9hPa WNW 4mph /  6.4km/h 8mph /  12.9km/h 92% 0.05in /  1.3mm 62 W/m2
11:56 37.6 °F /  3.1 °C 35.4 °F /  1.9 °C 30in /  1014.9hPa ESE 2mph /  3.2km/h 12mph /  19.3km/h 92% 0.04in /  1.0mm 56 W/m2
12:01 37.6 °F /  3.1 °C 35.8 °F /  2.1 °C 30in /  1014.9hPa NNW 2.9mph /  4.7km/h 5mph /  8km/h 93% 0.04in /  1.0mm 44 W/m2
12:06 37.6 °F /  3.1 °C 35.8 °F /  2.1 °C 30in /  1014.9hPa NNW 2.9mph /  4.7km/h 9mph /  14.5km/h 93% 0.03in /  0.8mm 53 W/m2
12:11 37.8 °F /  3.2 °C 36 °F /  2.2 °C 30in /  1014.9hPa NW 2.9mph /  4.7km/h 8mph /  12.9km/h 93% 0.04in /  1.0mm 51 W/m2
12:16 37.8 °F /  3.2 °C 36 °F /  2.2 °C 30in /  1014.6hPa ESE 0.9mph /  1.4km/h 10mph /  16.1km/h 93% 0.03in /  0.8mm 58 W/m2
12:21 37.8 °F /  3.2 °C 36 °F /  2.2 °C 30in /  1014.6hPa North 2mph /  3.2km/h 14mph /  22.5km/h 93% 0.03in /  0.8mm 58 W/m2
12:26 37.8 °F /  3.2 °C 36 °F /  2.2 °C 30in /  1014.6hPa NNW 2mph /  3.2km/h 3mph /  4.8km/h 93% 0.02in /  0.5mm 63 W/m2
12:31 37.8 °F /  3.2 °C 36 °F /  2.2 °C 30in /  1014.6hPa NW 2mph /  3.2km/h 14mph /  22.5km/h 93% 0.02in /  0.5mm 67 W/m2
12:36 37.8 °F /  3.2 °C 36 °F /  2.2 °C 30in /  1014.6hPa WNW 4.9mph /  7.9km/h 7mph /  11.3km/h 93% 0.02in /  0.5mm 70 W/m2
12:41 37.8 °F /  3.2 °C 36 °F /  2.2 °C 30in /  1014.6hPa ENE 11mph /  17.7km/h 11mph /  17.7km/h 93% 0.02in /  0.5mm 72 W/m2
12:46 37.8 °F /  3.2 °C 36 °F /  2.2 °C 30in /  1014.2hPa NW 0.9mph /  1.4km/h 13mph /  20.9km/h 93% 0.02in /  0.5mm 62 W/m2
12:51 37.8 °F /  3.2 °C 36.1 °F /  2.3 °C 30in /  1014.2hPa North 2mph /  3.2km/h 9mph /  14.5km/h 94% 0.02in /  0.5mm 58 W/m2
12:56 37.9 °F /  3.3 °C 36.3 °F /  2.4 °C 30in /  1014.2hPa WNW 2.9mph /  4.7km/h 13mph /  20.9km/h 94% 0.02in /  0.5mm 81 W/m2
13:02 37.9 °F /  3.3 °C 36.3 °F /  2.4 °C 29.9in /  1013.9hPa NNW 6mph /  9.7km/h 10mph /  16.1km/h 94% 0.02in /  0.5mm 79 W/m2
13:07 37.9 °F /  3.3 °C 36.3 °F /  2.4 °C 29.9in /  1013.9hPa NW 4mph /  6.4km/h 9mph /  14.5km/h 94% 0.02in /  0.5mm 79 W/m2
13:12 37.9 °F /  3.3 °C 36.3 °F /  2.4 °C 29.9in /  1013.9hPa North 4mph /  6.4km/h 8mph /  12.9km/h 94% 0.02in /  0.5mm 63 W/m2
13:17 37.9 °F /  3.3 °C 36.3 °F /  2.4 °C 29.9in /  1013.9hPa WNW 2mph /  3.2km/h 8mph /  12.9km/h 94% 0.02in /  0.5mm 63 W/m2
13:22 37.9 °F /  3.3 °C 36.3 °F /  2.4 °C 29.9in /  1013.9hPa NW 2.9mph /  4.7km/h 10mph /  16.1km/h 94% 0.02in /  0.5mm 58 W/m2
13:27 37.9 °F /  3.3 °C 36.3 °F /  2.4 °C 29.9in /  1013.9hPa NNW 2.9mph /  4.7km/h 4mph /  6.4km/h 94% 0.02in /  0.5mm 70 W/m2
13:32 37.9 °F /  3.3 °C 36.3 °F /  2.4 °C 29.9in /  1013.9hPa WNW 6.9mph /  11.1km/h 10mph /  16.1km/h 94% 0.02in /  0.5mm 84 W/m2
13:37 38.1 °F /  3.4 °C 36.5 °F /  2.5 °C 29.9in /  1013.9hPa North 2.9mph /  4.7km/h 8mph /  12.9km/h 94% 0.02in /  0.5mm 65 W/m2
13:42 38.1 °F /  3.4 °C 36.5 °F /  2.5 °C 29.9in /  1013.9hPa NW 4mph /  6.4km/h 7mph /  11.3km/h 94% 0.01in /  0.2mm 72 W/m2
13:47 38.1 °F /  3.4 °C 36.5 °F /  2.5 °C 29.9in /  1013.5hPa NW 2.9mph /  4.7km/h 9mph /  14.5km/h 94% 0.01in /  0.2mm 72 W/m2
13:52 38.1 °F /  3.4 °C 36.5 °F /  2.5 °C 29.9in /  1013.5hPa NNW 2mph /  3.2km/h 12mph /  19.3km/h 94% 0.01in /  0.2mm 58 W/m2
13:57 38.1 °F /  3.4 °C 36.5 °F /  2.5 °C 29.9in /  1013.5hPa NNW 2.9mph /  4.7km/h 6mph /  9.7km/h 94% 0.01in /  0.2mm 56 W/m2
14:02 38.1 °F /  3.4 °C 36.5 °F /  2.5 °C 29.9in /  1013.5hPa West 6.9mph /  11.1km/h 12mph /  19.3km/h 94% 0.01in /  0.2mm 74 W/m2
14:07 38.1 °F /  3.4 °C 36.3 °F /  2.4 °C 29.9in /  1013.5hPa NW 2.9mph /  4.7km/h 13mph /  20.9km/h 93% 0in /  0.0mm 76 W/m2
14:12 38.3 °F /  3.5 °C 36.5 °F /  2.5 °C 29.9in /  1013.5hPa WNW 10.1mph /  16.3km/h 14mph /  22.5km/h 93% 0in /  0.0mm 74 W/m2
14:17 38.5 °F /  3.6 °C 36.7 °F /  2.6 °C 29.9in /  1013.5hPa West 2mph /  3.2km/h 7mph /  11.3km/h 93% 0in /  0.0mm 97 W/m2
14:22 38.5 °F /  3.6 °C 36.7 °F /  2.6 °C 29.9in /  1013.5hPa NW 14mph /  22.5km/h 14mph /  22.5km/h 93% 0in /  0.0mm 69 W/m2
14:27 38.5 °F /  3.6 °C 36.7 °F /  2.6 °C 29.9in /  1013.5hPa WNW 8.9mph /  14.3km/h 9mph /  14.5km/h 93% 0in /  0.0mm 84 W/m2
14:32 38.5 °F /  3.6 °C 36.7 °F /  2.6 °C 29.9in /  1013.2hPa WNW 6.9mph /  11.1km/h 10mph /  16.1km/h 93% 0in /  0.0mm 69 W/m2
14:37 38.7 °F /  3.7 °C 36.9 °F /  2.7 °C 29.9in /  1013.2hPa SW 10.1mph /  16.3km/h 10mph /  16.1km/h 93% 0in /  0.0mm 62 W/m2
14:42 38.5 °F /  3.6 °C 36.7 °F /  2.6 °C 29.9in /  1013.2hPa WNW 2.9mph /  4.7km/h 6mph /  9.7km/h 93% 0in /  0.0mm 65 W/m2
14:47 38.7 °F /  3.7 °C 36.9 °F /  2.7 °C 29.9in /  1013.2hPa West 2mph /  3.2km/h 8mph /  12.9km/h 93% 0in /  0.0mm 74 W/m2
14:52 38.7 °F /  3.7 °C 36.9 °F /  2.7 °C 29.9in /  1013.2hPa West 10.1mph /  16.3km/h 10mph /  16.1km/h 93% 0.01in /  0.2mm 79 W/m2
14:57 38.7 °F /  3.7 °C 36.9 °F /  2.7 °C 29.9in /  1012.9hPa NW 4mph /  6.4km/h 8mph /  12.9km/h 93% 0.01in /  0.2mm 102 W/m2
15:02 38.7 °F /  3.7 °C 36.9 °F /  2.7 °C 29.9in /  1013.2hPa NW 2.9mph /  4.7km/h 7mph /  11.3km/h 93% 0.02in /  0.5mm 97 W/m2
15:07 38.7 °F /  3.7 °C 36.9 °F /  2.7 °C 29.9in /  1013.2hPa NNW 8.1mph /  13km/h 8mph /  12.9km/h 93% 0.02in /  0.5mm 65 W/m2
Juneau County Weather
Compliments of Weather Underground - 2 mb